sensor_id;sensor_type;location;lat;lon;timestamp;P1;durP1;ratioP1;P2;durP2;ratioP2
75928;SDS011;64606;44.062;2.986;2023-08-30T00:00:48;5.28;;;2.28;;
75928;SDS011;64606;44.062;2.986;2023-08-30T00:03:14;6.72;;;3.00;;
75928;SDS011;64606;44.062;2.986;2023-08-30T00:05:40;7.35;;;2.75;;
75928;SDS011;64606;44.062;2.986;2023-08-30T00:08:07;4.97;;;2.25;;
75928;SDS011;64606;44.062;2.986;2023-08-30T00:10:33;5.30;;;2.58;;
75928;SDS011;64606;44.062;2.986;2023-08-30T00:12:59;6.40;;;2.72;;
75928;SDS011;64606;44.062;2.986;2023-08-30T00:15:25;4.45;;;2.20;;
75928;SDS011;64606;44.062;2.986;2023-08-30T00:17:51;6.70;;;2.20;;
75928;SDS011;64606;44.062;2.986;2023-08-30T00:20:18;5.38;;;2.50;;
75928;SDS011;64606;44.062;2.986;2023-08-30T00:22:44;10.45;;;2.28;;
75928;SDS011;64606;44.062;2.986;2023-08-30T00:25:10;5.10;;;2.50;;
75928;SDS011;64606;44.062;2.986;2023-08-30T00:27:36;6.57;;;2.58;;
75928;SDS011;64606;44.062;2.986;2023-08-30T00:30:03;5.10;;;2.05;;
75928;SDS011;64606;44.062;2.986;2023-08-30T00:32:29;4.90;;;2.35;;
75928;SDS011;64606;44.062;2.986;2023-08-30T00:34:56;4.82;;;2.50;;
75928;SDS011;64606;44.062;2.986;2023-08-30T00:37:23;4.63;;;2.30;;
75928;SDS011;64606;44.062;2.986;2023-08-30T00:39:49;14.68;;;3.25;;
75928;SDS011;64606;44.062;2.986;2023-08-30T00:42:15;5.30;;;2.58;;
75928;SDS011;64606;44.062;2.986;2023-08-30T00:44:41;5.45;;;2.58;;
75928;SDS011;64606;44.062;2.986;2023-08-30T00:47:07;6.15;;;2.40;;
75928;SDS011;64606;44.062;2.986;2023-08-30T00:49:34;5.80;;;2.33;;
75928;SDS011;64606;44.062;2.986;2023-08-30T00:52:01;4.28;;;2.17;;
75928;SDS011;64606;44.062;2.986;2023-08-30T00:54:27;6.03;;;2.60;;
75928;SDS011;64606;44.062;2.986;2023-08-30T00:56:54;4.18;;;2.30;;
75928;SDS011;64606;44.062;2.986;2023-08-30T00:59:20;4.45;;;2.25;;
75928;SDS011;64606;44.062;2.986;2023-08-30T01:01:47;4.93;;;2.30;;
75928;SDS011;64606;44.062;2.986;2023-08-30T01:04:13;4.47;;;2.58;;
75928;SDS011;64606;44.062;2.986;2023-08-30T01:06:40;4.68;;;2.35;;
75928;SDS011;64606;44.062;2.986;2023-08-30T01:09:07;3.38;;;2.13;;
75928;SDS011;64606;44.062;2.986;2023-08-30T01:14:07;8.60;;;2.63;;
75928;SDS011;64606;44.062;2.986;2023-08-30T01:16:35;3.80;;;2.15;;
75928;SDS011;64606;44.062;2.986;2023-08-30T01:19:09;6.47;;;2.35;;
75928;SDS011;64606;44.062;2.986;2023-08-30T01:24:26;4.32;;;2.55;;
75928;SDS011;64606;44.062;2.986;2023-08-30T01:27:11;10.95;;;2.58;;
75928;SDS011;64606;44.062;2.986;2023-08-30T01:29:37;6.95;;;2.40;;
75928;SDS011;64606;44.062;2.986;2023-08-30T01:32:05;8.52;;;2.90;;
75928;SDS011;64606;44.062;2.986;2023-08-30T01:34:31;3.20;;;2.20;;
75928;SDS011;64606;44.062;2.986;2023-08-30T01:36:58;5.25;;;2.20;;
75928;SDS011;64606;44.062;2.986;2023-08-30T01:39:25;5.80;;;2.95;;
75928;SDS011;64606;44.062;2.986;2023-08-30T01:41:51;5.93;;;2.65;;
75928;SDS011;64606;44.062;2.986;2023-08-30T01:44:24;4.78;;;2.30;;
75928;SDS011;64606;44.062;2.986;2023-08-30T01:46:50;5.03;;;2.45;;
75928;SDS011;64606;44.062;2.986;2023-08-30T01:49:16;4.50;;;2.55;;
75928;SDS011;64606;44.062;2.986;2023-08-30T01:51:43;4.72;;;2.50;;
75928;SDS011;64606;44.062;2.986;2023-08-30T01:54:09;5.47;;;2.80;;
75928;SDS011;64606;44.062;2.986;2023-08-30T01:56:37;3.47;;;2.53;;
75928;SDS011;64606;44.062;2.986;2023-08-30T01:59:04;7.43;;;2.67;;
75928;SDS011;64606;44.062;2.986;2023-08-30T02:01:30;5.18;;;2.42;;
75928;SDS011;64606;44.062;2.986;2023-08-30T02:03:56;5.80;;;2.40;;
75928;SDS011;64606;44.062;2.986;2023-08-30T02:06:29;5.57;;;2.50;;
75928;SDS011;64606;44.062;2.986;2023-08-30T02:09:04;5.68;;;2.40;;
75928;SDS011;64606;44.062;2.986;2023-08-30T02:13:58;5.50;;;2.70;;
75928;SDS011;64606;44.062;2.986;2023-08-30T02:16:28;4.38;;;2.55;;
75928;SDS011;64606;44.062;2.986;2023-08-30T02:18:54;5.38;;;2.50;;
75928;SDS011;64606;44.062;2.986;2023-08-30T02:21:21;5.88;;;3.20;;
75928;SDS011;64606;44.062;2.986;2023-08-30T02:23:50;5.57;;;2.67;;
75928;SDS011;64606;44.062;2.986;2023-08-30T02:26:19;5.40;;;3.00;;
75928;SDS011;64606;44.062;2.986;2023-08-30T02:28:46;5.70;;;2.78;;
75928;SDS011;64606;44.062;2.986;2023-08-30T02:31:12;4.95;;;2.78;;
75928;SDS011;64606;44.062;2.986;2023-08-30T02:33:38;4.95;;;2.50;;
75928;SDS011;64606;44.062;2.986;2023-08-30T02:36:04;4.93;;;2.70;;
75928;SDS011;64606;44.062;2.986;2023-08-30T02:38:31;6.78;;;2.65;;
75928;SDS011;64606;44.062;2.986;2023-08-30T02:40:57;10.25;;;2.63;;
75928;SDS011;64606;44.062;2.986;2023-08-30T02:43:23;8.43;;;2.65;;
75928;SDS011;64606;44.062;2.986;2023-08-30T02:45:49;7.57;;;2.80;;
75928;SDS011;64606;44.062;2.986;2023-08-30T02:48:16;6.38;;;2.85;;
75928;SDS011;64606;44.062;2.986;2023-08-30T02:50:42;5.93;;;2.78;;
75928;SDS011;64606;44.062;2.986;2023-08-30T02:53:08;5.13;;;2.42;;
75928;SDS011;64606;44.062;2.986;2023-08-30T02:55:35;5.60;;;2.47;;
75928;SDS011;64606;44.062;2.986;2023-08-30T02:58:01;5.88;;;2.88;;
75928;SDS011;64606;44.062;2.986;2023-08-30T03:00:27;5.32;;;2.60;;
75928;SDS011;64606;44.062;2.986;2023-08-30T03:02:53;6.30;;;2.70;;
75928;SDS011;64606;44.062;2.986;2023-08-30T03:05:19;6.05;;;2.80;;
75928;SDS011;64606;44.062;2.986;2023-08-30T03:07:45;4.10;;;2.38;;
75928;SDS011;64606;44.062;2.986;2023-08-30T03:10:12;6.57;;;2.65;;
75928;SDS011;64606;44.062;2.986;2023-08-30T03:12:38;4.88;;;2.40;;
75928;SDS011;64606;44.062;2.986;2023-08-30T03:15:04;7.88;;;2.50;;
75928;SDS011;64606;44.062;2.986;2023-08-30T03:17:31;4.05;;;2.30;;
75928;SDS011;64606;44.062;2.986;2023-08-30T03:19:57;4.63;;;2.60;;
75928;SDS011;64606;44.062;2.986;2023-08-30T03:22:23;5.03;;;2.83;;
75928;SDS011;64606;44.062;2.986;2023-08-30T03:24:49;8.80;;;2.70;;
75928;SDS011;64606;44.062;2.986;2023-08-30T03:27:16;6.13;;;2.70;;
75928;SDS011;64606;44.062;2.986;2023-08-30T03:29:44;7.50;;;2.75;;
75928;SDS011;64606;44.062;2.986;2023-08-30T03:32:10;3.70;;;2.30;;
75928;SDS011;64606;44.062;2.986;2023-08-30T03:34:36;9.43;;;2.60;;
75928;SDS011;64606;44.062;2.986;2023-08-30T03:37:02;6.30;;;2.40;;
75928;SDS011;64606;44.062;2.986;2023-08-30T03:39:28;4.13;;;2.30;;
75928;SDS011;64606;44.062;2.986;2023-08-30T03:41:54;6.00;;;2.70;;
75928;SDS011;64606;44.062;2.986;2023-08-30T03:44:21;5.57;;;2.40;;
75928;SDS011;64606;44.062;2.986;2023-08-30T03:46:47;5.38;;;2.30;;
75928;SDS011;64606;44.062;2.986;2023-08-30T03:49:13;4.93;;;2.42;;
75928;SDS011;64606;44.062;2.986;2023-08-30T03:51:39;5.47;;;2.60;;
75928;SDS011;64606;44.062;2.986;2023-08-30T03:54:05;4.97;;;2.60;;
75928;SDS011;64606;44.062;2.986;2023-08-30T03:56:31;6.55;;;2.80;;
75928;SDS011;64606;44.062;2.986;2023-08-30T03:58:57;4.47;;;2.60;;
75928;SDS011;64606;44.062;2.986;2023-08-30T04:01:23;5.63;;;2.63;;
75928;SDS011;64606;44.062;2.986;2023-08-30T04:03:49;5.80;;;2.67;;
75928;SDS011;64606;44.062;2.986;2023-08-30T04:06:15;5.50;;;2.58;;
75928;SDS011;64606;44.062;2.986;2023-08-30T04:08:42;4.80;;;2.70;;
75928;SDS011;64606;44.062;2.986;2023-08-30T04:11:08;7.30;;;2.83;;
75928;SDS011;64606;44.062;2.986;2023-08-30T04:13:34;7.60;;;2.95;;
75928;SDS011;64606;44.062;2.986;2023-08-30T04:16:00;4.82;;;2.53;;
75928;SDS011;64606;44.062;2.986;2023-08-30T04:18:26;6.50;;;2.60;;
75928;SDS011;64606;44.062;2.986;2023-08-30T04:20:52;4.28;;;2.38;;
75928;SDS011;64606;44.062;2.986;2023-08-30T04:23:18;5.43;;;2.63;;
75928;SDS011;64606;44.062;2.986;2023-08-30T04:25:44;8.38;;;2.35;;
75928;SDS011;64606;44.062;2.986;2023-08-30T04:28:11;6.10;;;2.63;;
75928;SDS011;64606;44.062;2.986;2023-08-30T04:30:37;6.78;;;2.60;;
75928;SDS011;64606;44.062;2.986;2023-08-30T04:33:04;4.43;;;2.30;;
75928;SDS011;64606;44.062;2.986;2023-08-30T04:35:30;6.15;;;2.80;;
75928;SDS011;64606;44.062;2.986;2023-08-30T04:38:00;7.75;;;3.05;;
75928;SDS011;64606;44.062;2.986;2023-08-30T04:40:26;5.68;;;2.38;;
75928;SDS011;64606;44.062;2.986;2023-08-30T04:42:54;6.32;;;2.78;;
75928;SDS011;64606;44.062;2.986;2023-08-30T04:45:20;5.75;;;2.67;;
75928;SDS011;64606;44.062;2.986;2023-08-30T04:47:47;7.68;;;2.85;;
75928;SDS011;64606;44.062;2.986;2023-08-30T04:50:14;4.45;;;2.42;;
75928;SDS011;64606;44.062;2.986;2023-08-30T04:52:40;4.40;;;2.65;;
75928;SDS011;64606;44.062;2.986;2023-08-30T04:55:07;6.35;;;2.88;;
75928;SDS011;64606;44.062;2.986;2023-08-30T04:57:34;7.57;;;3.03;;
75928;SDS011;64606;44.062;2.986;2023-08-30T05:00:00;6.38;;;3.00;;
75928;SDS011;64606;44.062;2.986;2023-08-30T05:02:29;8.02;;;3.28;;
75928;SDS011;64606;44.062;2.986;2023-08-30T05:04:55;7.55;;;3.10;;
75928;SDS011;64606;44.062;2.986;2023-08-30T05:07:22;6.72;;;2.63;;
75928;SDS011;64606;44.062;2.986;2023-08-30T05:09:48;6.22;;;2.70;;
75928;SDS011;64606;44.062;2.986;2023-08-30T05:12:14;10.45;;;3.22;;
75928;SDS011;64606;44.062;2.986;2023-08-30T05:14:40;5.43;;;2.60;;
75928;SDS011;64606;44.062;2.986;2023-08-30T05:17:06;4.80;;;2.83;;
75928;SDS011;64606;44.062;2.986;2023-08-30T05:19:32;6.38;;;2.80;;
75928;SDS011;64606;44.062;2.986;2023-08-30T05:21:58;9.27;;;3.00;;
75928;SDS011;64606;44.062;2.986;2023-08-30T05:24:25;5.32;;;2.60;;
75928;SDS011;64606;44.062;2.986;2023-08-30T05:26:52;8.48;;;2.85;;
75928;SDS011;64606;44.062;2.986;2023-08-30T05:29:18;8.52;;;2.88;;
75928;SDS011;64606;44.062;2.986;2023-08-30T05:31:44;6.38;;;3.10;;
75928;SDS011;64606;44.062;2.986;2023-08-30T05:34:10;7.78;;;3.28;;
75928;SDS011;64606;44.062;2.986;2023-08-30T05:36:36;8.32;;;3.35;;
75928;SDS011;64606;44.062;2.986;2023-08-30T05:39:03;7.85;;;3.50;;
75928;SDS011;64606;44.062;2.986;2023-08-30T05:41:29;6.93;;;3.25;;
75928;SDS011;64606;44.062;2.986;2023-08-30T05:43:55;7.03;;;2.80;;
75928;SDS011;64606;44.062;2.986;2023-08-30T05:46:21;5.90;;;2.90;;
75928;SDS011;64606;44.062;2.986;2023-08-30T05:48:48;7.70;;;2.90;;
75928;SDS011;64606;44.062;2.986;2023-08-30T05:51:14;5.97;;;2.85;;
75928;SDS011;64606;44.062;2.986;2023-08-30T05:53:40;6.13;;;3.22;;
75928;SDS011;64606;44.062;2.986;2023-08-30T05:56:07;6.22;;;2.80;;
75928;SDS011;64606;44.062;2.986;2023-08-30T05:58:33;5.95;;;2.50;;
75928;SDS011;64606;44.062;2.986;2023-08-30T06:01:00;5.53;;;2.75;;
75928;SDS011;64606;44.062;2.986;2023-08-30T06:03:28;9.10;;;2.90;;
75928;SDS011;64606;44.062;2.986;2023-08-30T06:05:54;6.57;;;3.20;;
75928;SDS011;64606;44.062;2.986;2023-08-30T06:08:20;7.10;;;3.28;;
75928;SDS011;64606;44.062;2.986;2023-08-30T06:10:46;11.27;;;3.03;;
75928;SDS011;64606;44.062;2.986;2023-08-30T06:13:12;8.63;;;3.13;;
75928;SDS011;64606;44.062;2.986;2023-08-30T06:15:38;5.30;;;2.85;;
75928;SDS011;64606;44.062;2.986;2023-08-30T06:18:04;4.93;;;2.67;;
75928;SDS011;64606;44.062;2.986;2023-08-30T06:20:31;6.35;;;3.20;;
75928;SDS011;64606;44.062;2.986;2023-08-30T06:23:03;31.80;;;3.60;;
75928;SDS011;64606;44.062;2.986;2023-08-30T06:25:29;27.40;;;4.18;;
75928;SDS011;64606;44.062;2.986;2023-08-30T06:27:58;17.73;;;3.20;;
75928;SDS011;64606;44.062;2.986;2023-08-30T06:30:26;29.77;;;3.40;;
75928;SDS011;64606;44.062;2.986;2023-08-30T06:32:53;27.92;;;4.45;;
75928;SDS011;64606;44.062;2.986;2023-08-30T06:35:19;26.27;;;3.97;;
75928;SDS011;64606;44.062;2.986;2023-08-30T06:37:45;12.75;;;3.70;;
75928;SDS011;64606;44.062;2.986;2023-08-30T06:40:11;13.93;;;3.47;;
75928;SDS011;64606;44.062;2.986;2023-08-30T06:42:37;6.97;;;3.00;;
75928;SDS011;64606;44.062;2.986;2023-08-30T06:45:03;10.07;;;3.60;;
75928;SDS011;64606;44.062;2.986;2023-08-30T06:47:30;6.45;;;3.42;;
75928;SDS011;64606;44.062;2.986;2023-08-30T06:49:56;9.45;;;3.45;;
75928;SDS011;64606;44.062;2.986;2023-08-30T06:52:22;5.75;;;3.03;;
75928;SDS011;64606;44.062;2.986;2023-08-30T06:54:48;8.30;;;3.38;;
75928;SDS011;64606;44.062;2.986;2023-08-30T06:57:14;15.80;;;3.35;;
75928;SDS011;64606;44.062;2.986;2023-08-30T06:59:40;10.07;;;3.47;;
75928;SDS011;64606;44.062;2.986;2023-08-30T07:02:06;6.53;;;3.17;;
75928;SDS011;64606;44.062;2.986;2023-08-30T07:04:32;5.88;;;2.80;;
75928;SDS011;64606;44.062;2.986;2023-08-30T07:06:59;8.73;;;3.10;;
75928;SDS011;64606;44.062;2.986;2023-08-30T07:09:25;5.22;;;3.08;;
75928;SDS011;64606;44.062;2.986;2023-08-30T07:11:54;6.45;;;3.13;;
75928;SDS011;64606;44.062;2.986;2023-08-30T07:14:20;8.45;;;3.00;;
75928;SDS011;64606;44.062;2.986;2023-08-30T07:16:46;6.45;;;2.88;;
75928;SDS011;64606;44.062;2.986;2023-08-30T07:19:14;5.53;;;3.20;;
75928;SDS011;64606;44.062;2.986;2023-08-30T07:21:41;7.45;;;3.42;;
75928;SDS011;64606;44.062;2.986;2023-08-30T07:24:08;10.10;;;3.10;;
75928;SDS011;64606;44.062;2.986;2023-08-30T07:26:34;8.75;;;3.30;;
75928;SDS011;64606;44.062;2.986;2023-08-30T07:29:01;12.77;;;3.50;;
75928;SDS011;64606;44.062;2.986;2023-08-30T07:31:29;11.85;;;3.40;;
75928;SDS011;64606;44.062;2.986;2023-08-30T07:33:56;10.90;;;3.15;;
75928;SDS011;64606;44.062;2.986;2023-08-30T07:36:23;8.77;;;3.40;;
75928;SDS011;64606;44.062;2.986;2023-08-30T07:38:49;11.68;;;3.63;;
75928;SDS011;64606;44.062;2.986;2023-08-30T07:41:15;6.45;;;3.30;;
75928;SDS011;64606;44.062;2.986;2023-08-30T07:43:41;6.45;;;3.38;;
75928;SDS011;64606;44.062;2.986;2023-08-30T07:46:07;6.43;;;2.85;;
75928;SDS011;64606;44.062;2.986;2023-08-30T07:48:33;8.65;;;3.03;;
75928;SDS011;64606;44.062;2.986;2023-08-30T07:51:00;6.93;;;3.55;;
75928;SDS011;64606;44.062;2.986;2023-08-30T07:53:26;6.60;;;3.40;;
75928;SDS011;64606;44.062;2.986;2023-08-30T07:55:52;7.97;;;3.35;;
75928;SDS011;64606;44.062;2.986;2023-08-30T07:58:18;9.55;;;3.70;;
75928;SDS011;64606;44.062;2.986;2023-08-30T08:00:44;7.53;;;3.53;;
75928;SDS011;64606;44.062;2.986;2023-08-30T08:03:10;5.80;;;3.38;;
75928;SDS011;64606;44.062;2.986;2023-08-30T08:05:36;5.57;;;2.78;;
75928;SDS011;64606;44.062;2.986;2023-08-30T08:08:03;4.80;;;2.90;;
75928;SDS011;64606;44.062;2.986;2023-08-30T08:10:32;7.13;;;3.45;;
75928;SDS011;64606;44.062;2.986;2023-08-30T08:12:59;7.68;;;3.20;;
75928;SDS011;64606;44.062;2.986;2023-08-30T08:15:25;8.57;;;3.58;;
75928;SDS011;64606;44.062;2.986;2023-08-30T08:17:51;5.88;;;3.08;;
75928;SDS011;64606;44.062;2.986;2023-08-30T08:20:17;7.90;;;3.58;;
75928;SDS011;64606;44.062;2.986;2023-08-30T08:22:43;11.65;;;4.28;;
75928;SDS011;64606;44.062;2.986;2023-08-30T08:25:10;11.48;;;4.50;;
75928;SDS011;64606;44.062;2.986;2023-08-30T08:27:36;6.72;;;3.40;;
75928;SDS011;64606;44.062;2.986;2023-08-30T08:30:03;6.00;;;3.10;;
75928;SDS011;64606;44.062;2.986;2023-08-30T08:32:30;6.10;;;3.10;;
75928;SDS011;64606;44.062;2.986;2023-08-30T08:35:02;4.53;;;2.75;;
75928;SDS011;64606;44.062;2.986;2023-08-30T08:37:29;5.53;;;3.08;;
75928;SDS011;64606;44.062;2.986;2023-08-30T08:39:55;9.15;;;2.95;;
75928;SDS011;64606;44.062;2.986;2023-08-30T08:42:21;5.45;;;2.85;;
75928;SDS011;64606;44.062;2.986;2023-08-30T08:44:47;8.90;;;2.97;;
75928;SDS011;64606;44.062;2.986;2023-08-30T08:47:19;7.32;;;3.05;;
75928;SDS011;64606;44.062;2.986;2023-08-30T08:49:45;5.88;;;3.17;;
75928;SDS011;64606;44.062;2.986;2023-08-30T08:52:13;6.43;;;3.15;;
75928;SDS011;64606;44.062;2.986;2023-08-30T08:54:40;8.40;;;3.22;;
75928;SDS011;64606;44.062;2.986;2023-08-30T08:57:06;5.50;;;3.00;;
75928;SDS011;64606;44.062;2.986;2023-08-30T08:59:33;7.82;;;3.45;;
75928;SDS011;64606;44.062;2.986;2023-08-30T09:02:03;6.95;;;3.22;;
75928;SDS011;64606;44.062;2.986;2023-08-30T09:04:30;11.93;;;3.28;;
75928;SDS011;64606;44.062;2.986;2023-08-30T09:06:56;8.57;;;3.40;;
75928;SDS011;64606;44.062;2.986;2023-08-30T09:09:24;6.13;;;3.10;;
75928;SDS011;64606;44.062;2.986;2023-08-30T09:11:50;4.65;;;2.53;;
75928;SDS011;64606;44.062;2.986;2023-08-30T09:14:17;5.07;;;2.70;;
75928;SDS011;64606;44.062;2.986;2023-08-30T09:16:53;7.38;;;2.70;;
75928;SDS011;64606;44.062;2.986;2023-08-30T09:19:19;4.65;;;3.03;;
75928;SDS011;64606;44.062;2.986;2023-08-30T09:21:56;3.90;;;2.50;;
75928;SDS011;64606;44.062;2.986;2023-08-30T09:24:23;4.35;;;2.40;;
75928;SDS011;64606;44.062;2.986;2023-08-30T09:26:49;6.13;;;2.38;;
75928;SDS011;64606;44.062;2.986;2023-08-30T09:29:19;4.45;;;2.30;;
75928;SDS011;64606;44.062;2.986;2023-08-30T09:31:45;5.53;;;2.58;;
75928;SDS011;64606;44.062;2.986;2023-08-30T09:34:11;4.10;;;2.33;;
75928;SDS011;64606;44.062;2.986;2023-08-30T09:36:38;4.35;;;2.50;;
75928;SDS011;64606;44.062;2.986;2023-08-30T09:39:05;4.72;;;2.70;;
75928;SDS011;64606;44.062;2.986;2023-08-30T09:41:32;7.00;;;2.90;;
75928;SDS011;64606;44.062;2.986;2023-08-30T09:43:58;4.38;;;2.70;;
75928;SDS011;64606;44.062;2.986;2023-08-30T09:46:25;4.30;;;2.30;;
75928;SDS011;64606;44.062;2.986;2023-08-30T09:48:52;6.53;;;2.50;;
75928;SDS011;64606;44.062;2.986;2023-08-30T09:51:19;4.90;;;2.35;;
75928;SDS011;64606;44.062;2.986;2023-08-30T09:53:46;3.88;;;2.40;;
75928;SDS011;64606;44.062;2.986;2023-08-30T09:56:14;4.53;;;2.45;;
75928;SDS011;64606;44.062;2.986;2023-08-30T09:58:41;5.88;;;2.85;;
75928;SDS011;64606;44.062;2.986;2023-08-30T10:01:08;3.40;;;2.53;;
75928;SDS011;64606;44.062;2.986;2023-08-30T10:03:35;4.57;;;2.50;;
75928;SDS011;64606;44.062;2.986;2023-08-30T10:06:01;4.40;;;2.63;;
75928;SDS011;64606;44.062;2.986;2023-08-30T10:08:30;3.42;;;2.40;;
75928;SDS011;64606;44.062;2.986;2023-08-30T10:10:58;4.55;;;2.42;;
75928;SDS011;64606;44.062;2.986;2023-08-30T10:13:25;4.50;;;2.60;;
75928;SDS011;64606;44.062;2.986;2023-08-30T10:15:52;5.03;;;2.50;;
75928;SDS011;64606;44.062;2.986;2023-08-30T10:18:19;5.63;;;2.50;;
75928;SDS011;64606;44.062;2.986;2023-08-30T10:20:46;5.43;;;2.63;;
75928;SDS011;64606;44.062;2.986;2023-08-30T10:23:12;3.55;;;2.42;;
75928;SDS011;64606;44.062;2.986;2023-08-30T10:25:39;4.22;;;2.45;;
75928;SDS011;64606;44.062;2.986;2023-08-30T10:28:06;6.82;;;2.28;;
75928;SDS011;64606;44.062;2.986;2023-08-30T10:30:33;5.18;;;2.63;;
75928;SDS011;64606;44.062;2.986;2023-08-30T10:32:59;6.05;;;2.50;;
75928;SDS011;64606;44.062;2.986;2023-08-30T10:35:25;4.35;;;2.33;;
75928;SDS011;64606;44.062;2.986;2023-08-30T10:37:55;6.50;;;2.45;;
75928;SDS011;64606;44.062;2.986;2023-08-30T10:40:21;3.78;;;2.58;;
75928;SDS011;64606;44.062;2.986;2023-08-30T10:42:57;3.30;;;2.42;;
75928;SDS011;64606;44.062;2.986;2023-08-30T10:45:24;5.72;;;2.22;;
75928;SDS011;64606;44.062;2.986;2023-08-30T10:47:53;3.03;;;2.20;;
75928;SDS011;64606;44.062;2.986;2023-08-30T10:50:26;5.85;;;2.65;;
75928;SDS011;64606;44.062;2.986;2023-08-30T10:52:56;7.25;;;2.85;;
75928;SDS011;64606;44.062;2.986;2023-08-30T10:55:22;4.55;;;2.40;;
75928;SDS011;64606;44.062;2.986;2023-08-30T10:57:57;5.80;;;2.50;;
75928;SDS011;64606;44.062;2.986;2023-08-30T11:00:23;5.80;;;2.38;;
75928;SDS011;64606;44.062;2.986;2023-08-30T11:02:50;3.60;;;2.50;;
75928;SDS011;64606;44.062;2.986;2023-08-30T11:05:17;4.95;;;2.65;;
75928;SDS011;64606;44.062;2.986;2023-08-30T11:07:44;5.47;;;2.83;;
75928;SDS011;64606;44.062;2.986;2023-08-30T11:10:11;5.25;;;2.60;;
75928;SDS011;64606;44.062;2.986;2023-08-30T11:12:39;3.25;;;2.40;;
75928;SDS011;64606;44.062;2.986;2023-08-30T11:15:06;4.70;;;2.50;;
75928;SDS011;64606;44.062;2.986;2023-08-30T11:17:33;5.80;;;2.53;;
75928;SDS011;64606;44.062;2.986;2023-08-30T11:20:12;5.35;;;2.63;;
75928;SDS011;64606;44.062;2.986;2023-08-30T11:22:40;4.28;;;2.50;;
75928;SDS011;64606;44.062;2.986;2023-08-30T11:25:07;7.43;;;2.83;;
75928;SDS011;64606;44.062;2.986;2023-08-30T11:27:34;6.60;;;2.85;;
75928;SDS011;64606;44.062;2.986;2023-08-30T11:30:00;4.65;;;2.55;;
75928;SDS011;64606;44.062;2.986;2023-08-30T11:32:34;8.07;;;2.90;;
75928;SDS011;64606;44.062;2.986;2023-08-30T11:35:00;4.40;;;2.30;;
75928;SDS011;64606;44.062;2.986;2023-08-30T11:37:26;4.70;;;3.00;;
75928;SDS011;64606;44.062;2.986;2023-08-30T11:39:53;5.40;;;2.80;;
75928;SDS011;64606;44.062;2.986;2023-08-30T11:42:19;4.10;;;2.50;;
75928;SDS011;64606;44.062;2.986;2023-08-30T11:44:45;4.03;;;2.70;;
75928;SDS011;64606;44.062;2.986;2023-08-30T11:47:17;8.60;;;2.80;;
75928;SDS011;64606;44.062;2.986;2023-08-30T11:49:44;4.07;;;2.53;;
75928;SDS011;64606;44.062;2.986;2023-08-30T11:52:10;7.78;;;3.00;;
75928;SDS011;64606;44.062;2.986;2023-08-30T11:54:37;4.55;;;2.63;;
75928;SDS011;64606;44.062;2.986;2023-08-30T11:57:03;6.30;;;2.47;;
75928;SDS011;64606;44.062;2.986;2023-08-30T11:59:30;4.32;;;2.70;;
75928;SDS011;64606;44.062;2.986;2023-08-30T12:02:00;5.28;;;2.30;;
75928;SDS011;64606;44.062;2.986;2023-08-30T12:04:26;5.05;;;2.47;;
75928;SDS011;64606;44.062;2.986;2023-08-30T12:06:53;5.60;;;2.50;;
75928;SDS011;64606;44.062;2.986;2023-08-30T12:09:19;6.18;;;2.65;;
75928;SDS011;64606;44.062;2.986;2023-08-30T12:11:48;3.38;;;2.40;;
75928;SDS011;64606;44.062;2.986;2023-08-30T12:14:14;4.80;;;2.33;;
75928;SDS011;64606;44.062;2.986;2023-08-30T12:16:42;3.67;;;2.45;;
75928;SDS011;64606;44.062;2.986;2023-08-30T12:19:08;4.90;;;2.75;;
75928;SDS011;64606;44.062;2.986;2023-08-30T12:21:42;5.85;;;2.65;;
75928;SDS011;64606;44.062;2.986;2023-08-30T12:24:09;4.30;;;2.80;;
75928;SDS011;64606;44.062;2.986;2023-08-30T12:26:35;4.95;;;2.40;;
75928;SDS011;64606;44.062;2.986;2023-08-30T12:29:03;5.30;;;2.25;;
75928;SDS011;64606;44.062;2.986;2023-08-30T12:31:30;6.55;;;2.42;;
75928;SDS011;64606;44.062;2.986;2023-08-30T12:33:56;4.40;;;2.30;;
75928;SDS011;64606;44.062;2.986;2023-08-30T12:36:22;3.22;;;2.25;;
75928;SDS011;64606;44.062;2.986;2023-08-30T12:38:48;4.88;;;2.70;;
75928;SDS011;64606;44.062;2.986;2023-08-30T12:41:14;2.92;;;2.22;;
75928;SDS011;64606;44.062;2.986;2023-08-30T12:43:41;5.22;;;2.65;;
75928;SDS011;64606;44.062;2.986;2023-08-30T12:46:07;3.83;;;2.40;;
75928;SDS011;64606;44.062;2.986;2023-08-30T12:48:33;4.72;;;2.40;;
75928;SDS011;64606;44.062;2.986;2023-08-30T12:50:59;8.75;;;2.72;;
75928;SDS011;64606;44.062;2.986;2023-08-30T12:53:25;7.80;;;2.83;;
75928;SDS011;64606;44.062;2.986;2023-08-30T12:55:51;4.30;;;2.30;;
75928;SDS011;64606;44.062;2.986;2023-08-30T12:58:18;4.10;;;2.13;;
75928;SDS011;64606;44.062;2.986;2023-08-30T13:00:44;5.85;;;2.25;;
75928;SDS011;64606;44.062;2.986;2023-08-30T13:03:11;3.47;;;2.25;;
75928;SDS011;64606;44.062;2.986;2023-08-30T13:05:37;3.05;;;2.10;;
75928;SDS011;64606;44.062;2.986;2023-08-30T13:08:03;4.75;;;2.40;;
75928;SDS011;64606;44.062;2.986;2023-08-30T13:10:29;3.40;;;2.13;;
75928;SDS011;64606;44.062;2.986;2023-08-30T13:12:55;3.78;;;2.70;;
75928;SDS011;64606;44.062;2.986;2023-08-30T13:15:22;5.03;;;2.38;;
75928;SDS011;64606;44.062;2.986;2023-08-30T13:17:48;3.72;;;2.58;;
75928;SDS011;64606;44.062;2.986;2023-08-30T13:20:14;6.80;;;2.50;;
75928;SDS011;64606;44.062;2.986;2023-08-30T13:22:41;6.50;;;2.65;;
75928;SDS011;64606;44.062;2.986;2023-08-30T13:25:07;6.63;;;2.50;;
75928;SDS011;64606;44.062;2.986;2023-08-30T13:27:33;3.38;;;2.28;;
75928;SDS011;64606;44.062;2.986;2023-08-30T13:30:00;5.57;;;2.40;;
75928;SDS011;64606;44.062;2.986;2023-08-30T13:32:26;4.90;;;2.53;;
75928;SDS011;64606;44.062;2.986;2023-08-30T13:34:52;3.95;;;2.40;;
75928;SDS011;64606;44.062;2.986;2023-08-30T13:37:18;5.18;;;2.35;;
75928;SDS011;64606;44.062;2.986;2023-08-30T13:42:46;6.93;;;2.45;;
75928;SDS011;64606;44.062;2.986;2023-08-30T13:45:12;4.40;;;2.45;;
75928;SDS011;64606;44.062;2.986;2023-08-30T13:47:38;7.60;;;2.55;;
75928;SDS011;64606;44.062;2.986;2023-08-30T13:50:05;5.72;;;2.33;;
75928;SDS011;64606;44.062;2.986;2023-08-30T13:52:32;4.53;;;2.65;;
75928;SDS011;64606;44.062;2.986;2023-08-30T13:54:58;5.57;;;2.60;;
75928;SDS011;64606;44.062;2.986;2023-08-30T13:57:25;4.15;;;2.20;;
75928;SDS011;64606;44.062;2.986;2023-08-30T13:59:51;9.18;;;2.75;;
75928;SDS011;64606;44.062;2.986;2023-08-30T14:02:17;3.70;;;2.47;;
75928;SDS011;64606;44.062;2.986;2023-08-30T14:04:44;7.30;;;2.30;;
75928;SDS011;64606;44.062;2.986;2023-08-30T14:07:10;5.40;;;2.33;;
75928;SDS011;64606;44.062;2.986;2023-08-30T14:09:37;5.18;;;2.55;;
75928;SDS011;64606;44.062;2.986;2023-08-30T14:12:03;4.55;;;2.63;;
75928;SDS011;64606;44.062;2.986;2023-08-30T14:14:29;5.03;;;2.55;;
75928;SDS011;64606;44.062;2.986;2023-08-30T14:16:55;4.35;;;2.53;;
75928;SDS011;64606;44.062;2.986;2023-08-30T14:19:22;6.85;;;2.67;;
75928;SDS011;64606;44.062;2.986;2023-08-30T14:21:48;4.65;;;2.63;;
75928;SDS011;64606;44.062;2.986;2023-08-30T14:24:14;3.67;;;2.67;;
75928;SDS011;64606;44.062;2.986;2023-08-30T14:26:40;5.03;;;2.72;;
75928;SDS011;64606;44.062;2.986;2023-08-30T14:29:06;5.78;;;3.00;;
75928;SDS011;64606;44.062;2.986;2023-08-30T14:31:32;4.68;;;2.60;;
75928;SDS011;64606;44.062;2.986;2023-08-30T14:33:58;4.80;;;2.85;;
75928;SDS011;64606;44.062;2.986;2023-08-30T14:36:24;3.83;;;2.42;;
75928;SDS011;64606;44.062;2.986;2023-08-30T14:38:51;4.95;;;2.53;;
75928;SDS011;64606;44.062;2.986;2023-08-30T14:41:17;3.70;;;2.30;;
75928;SDS011;64606;44.062;2.986;2023-08-30T14:43:43;6.57;;;2.60;;
75928;SDS011;64606;44.062;2.986;2023-08-30T14:46:09;3.42;;;2.53;;
75928;SDS011;64606;44.062;2.986;2023-08-30T14:48:35;6.43;;;2.70;;
75928;SDS011;64606;44.062;2.986;2023-08-30T14:51:04;4.20;;;2.63;;
75928;SDS011;64606;44.062;2.986;2023-08-30T14:53:30;6.80;;;2.70;;
75928;SDS011;64606;44.062;2.986;2023-08-30T14:55:56;3.47;;;2.65;;